sensor_id;sensor_type;location;lat;lon;timestamp;temperature;humidity
20174;DHT22;10246;50.620;7.232;2022-12-18T00:02:13;-5.30;3.70
20174;DHT22;10246;50.620;7.232;2022-12-18T00:04:41;-5.40;3.70
20174;DHT22;10246;50.620;7.232;2022-12-18T00:07:08;-5.30;3.70
20174;DHT22;10246;50.620;7.232;2022-12-18T00:09:34;-5.30;3.60
20174;DHT22;10246;50.620;7.232;2022-12-18T00:12:01;-5.40;3.70
20174;DHT22;10246;50.620;7.232;2022-12-18T00:14:28;-5.20;3.80
20174;DHT22;10246;50.620;7.232;2022-12-18T00:16:54;-5.50;3.60
20174;DHT22;10246;50.620;7.232;2022-12-18T00:19:23;-5.30;3.80
20174;DHT22;10246;50.620;7.232;2022-12-18T00:21:51;-5.40;3.70
20174;DHT22;10246;50.620;7.232;2022-12-18T00:24:18;-5.30;3.70
20174;DHT22;10246;50.620;7.232;2022-12-18T00:26:45;-5.40;3.10
20174;DHT22;10246;50.620;7.232;2022-12-18T00:29:13;-5.30;2.90
20174;DHT22;10246;50.620;7.232;2022-12-18T00:31:41;-5.10;1.80
20174;DHT22;10246;50.620;7.232;2022-12-18T00:34:09;-5.40;1.00
20174;DHT22;10246;50.620;7.232;2022-12-18T00:36:38;-5.50;1.00
20174;DHT22;10246;50.620;7.232;2022-12-18T00:39:06;-5.30;1.00
20174;DHT22;10246;50.620;7.232;2022-12-18T00:41:33;-5.60;1.00
20174;DHT22;10246;50.620;7.232;2022-12-18T00:44:18;-5.40;1.00
20174;DHT22;10246;50.620;7.232;2022-12-18T00:46:46;-5.60;1.00
20174;DHT22;10246;50.620;7.232;2022-12-18T00:49:13;-5.80;1.00
20174;DHT22;10246;50.620;7.232;2022-12-18T00:51:40;-5.90;1.00
20174;DHT22;10246;50.620;7.232;2022-12-18T00:54:09;-5.80;1.00
20174;DHT22;10246;50.620;7.232;2022-12-18T00:56:37;-5.80;1.00
20174;DHT22;10246;50.620;7.232;2022-12-18T00:59:04;-5.70;1.00
20174;DHT22;10246;50.620;7.232;2022-12-18T01:01:31;-5.70;1.00
20174;DHT22;10246;50.620;7.232;2022-12-18T01:04:00;-5.60;1.00
20174;DHT22;10246;50.620;7.232;2022-12-18T01:06:26;-5.90;1.00
20174;DHT22;10246;50.620;7.232;2022-12-18T01:08:54;-6.00;1.00
20174;DHT22;10246;50.620;7.232;2022-12-18T01:11:22;-5.80;1.00
20174;DHT22;10246;50.620;7.232;2022-12-18T01:13:49;-6.00;1.00
20174;DHT22;10246;50.620;7.232;2022-12-18T01:16:19;-6.00;1.00
20174;DHT22;10246;50.620;7.232;2022-12-18T01:18:46;-5.80;1.00
20174;DHT22;10246;50.620;7.232;2022-12-18T01:21:14;-6.00;1.00
20174;DHT22;10246;50.620;7.232;2022-12-18T01:23:44;-6.00;1.00
20174;DHT22;10246;50.620;7.232;2022-12-18T01:26:13;-5.90;1.00
20174;DHT22;10246;50.620;7.232;2022-12-18T01:28:42;-6.20;1.00
20174;DHT22;10246;50.620;7.232;2022-12-18T01:31:15;-6.20;1.00
20174;DHT22;10246;50.620;7.232;2022-12-18T01:33:42;-6.00;1.00
20174;DHT22;10246;50.620;7.232;2022-12-18T01:36:15;-6.10;1.00
20174;DHT22;10246;50.620;7.232;2022-12-18T01:38:42;-6.20;1.00
20174;DHT22;10246;50.620;7.232;2022-12-18T01:41:09;-6.20;1.00
20174;DHT22;10246;50.620;7.232;2022-12-18T01:43:57;-6.10;1.00
20174;DHT22;10246;50.620;7.232;2022-12-18T01:46:24;-6.30;1.00
20174;DHT22;10246;50.620;7.232;2022-12-18T01:48:54;-6.30;1.00
20174;DHT22;10246;50.620;7.232;2022-12-18T01:51:22;-6.40;1.00
20174;DHT22;10246;50.620;7.232;2022-12-18T01:53:49;-6.30;1.00
20174;DHT22;10246;50.620;7.232;2022-12-18T01:56:18;-6.40;1.00
20174;DHT22;10246;50.620;7.232;2022-12-18T01:58:52;-6.20;1.00
20174;DHT22;10246;50.620;7.232;2022-12-18T02:01:21;-6.30;1.00
20174;DHT22;10246;50.620;7.232;2022-12-18T02:03:49;-6.30;1.00
20174;DHT22;10246;50.620;7.232;2022-12-18T02:06:18;-6.20;1.00
20174;DHT22;10246;50.620;7.232;2022-12-18T02:09:02;-6.40;1.00
20174;DHT22;10246;50.620;7.232;2022-12-18T02:11:40;-6.20;1.00
20174;DHT22;10246;50.620;7.232;2022-12-18T02:14:18;-6.30;1.00
20174;DHT22;10246;50.620;7.232;2022-12-18T02:16:52;-6.30;1.00
20174;DHT22;10246;50.620;7.232;2022-12-18T02:19:37;-6.20;1.00
20174;DHT22;10246;50.620;7.232;2022-12-18T02:22:13;-6.10;1.60
20174;DHT22;10246;50.620;7.232;2022-12-18T02:24:48;-6.00;1.90
20174;DHT22;10246;50.620;7.232;2022-12-18T02:27:20;-6.20;1.80
20174;DHT22;10246;50.620;7.232;2022-12-18T02:29:50;-5.90;1.90
20174;DHT22;10246;50.620;7.232;2022-12-18T02:32:22;-6.10;1.10
20174;DHT22;10246;50.620;7.232;2022-12-18T02:34:51;-6.20;1.00
20174;DHT22;10246;50.620;7.232;2022-12-18T02:37:19;-6.00;1.50
20174;DHT22;10246;50.620;7.232;2022-12-18T02:39:48;-6.20;1.60
20174;DHT22;10246;50.620;7.232;2022-12-18T02:42:16;-6.10;2.10
20174;DHT22;10246;50.620;7.232;2022-12-18T02:44:46;-6.30;1.40
20174;DHT22;10246;50.620;7.232;2022-12-18T02:47:18;-6.10;1.90
20174;DHT22;10246;50.620;7.232;2022-12-18T02:49:54;-6.10;1.70
20174;DHT22;10246;50.620;7.232;2022-12-18T02:52:28;-6.10;1.60
20174;DHT22;10246;50.620;7.232;2022-12-18T02:55:01;-6.30;1.60
20174;DHT22;10246;50.620;7.232;2022-12-18T02:57:36;-6.10;1.50
20174;DHT22;10246;50.620;7.232;2022-12-18T03:00:11;-6.20;1.10
20174;DHT22;10246;50.620;7.232;2022-12-18T03:02:41;-6.20;1.90
20174;DHT22;10246;50.620;7.232;2022-12-18T03:05:13;-6.00;1.70
20174;DHT22;10246;50.620;7.232;2022-12-18T03:07:45;-6.00;1.30
20174;DHT22;10246;50.620;7.232;2022-12-18T03:10:16;-6.10;1.60
20174;DHT22;10246;50.620;7.232;2022-12-18T03:12:45;-6.20;1.60
20174;DHT22;10246;50.620;7.232;2022-12-18T03:15:19;-6.00;1.30
20174;DHT22;10246;50.620;7.232;2022-12-18T03:17:51;-6.10;1.00
20174;DHT22;10246;50.620;7.232;2022-12-18T03:20:21;-6.00;1.00
20174;DHT22;10246;50.620;7.232;2022-12-18T03:22:51;-6.20;1.00
20174;DHT22;10246;50.620;7.232;2022-12-18T03:25:19;-6.10;1.00
20174;DHT22;10246;50.620;7.232;2022-12-18T03:27:49;-6.30;1.00
20174;DHT22;10246;50.620;7.232;2022-12-18T03:30:18;-6.10;1.00
20174;DHT22;10246;50.620;7.232;2022-12-18T03:32:48;-6.10;1.00
20174;DHT22;10246;50.620;7.232;2022-12-18T03:35:20;-6.10;1.00
20174;DHT22;10246;50.620;7.232;2022-12-18T03:37:48;-6.00;1.00
20174;DHT22;10246;50.620;7.232;2022-12-18T03:40:15;-6.30;1.00
20174;DHT22;10246;50.620;7.232;2022-12-18T03:42:46;-6.20;1.00
20174;DHT22;10246;50.620;7.232;2022-12-18T03:45:21;-6.20;1.00
20174;DHT22;10246;50.620;7.232;2022-12-18T03:47:58;-6.40;1.00
20174;DHT22;10246;50.620;7.232;2022-12-18T03:50:31;-6.40;1.00
20174;DHT22;10246;50.620;7.232;2022-12-18T03:53:09;-6.50;1.00
20174;DHT22;10246;50.620;7.232;2022-12-18T03:55:40;-6.40;1.00
20174;DHT22;10246;50.620;7.232;2022-12-18T03:58:09;-6.60;1.00
20174;DHT22;10246;50.620;7.232;2022-12-18T04:00:40;-6.40;1.00
20174;DHT22;10246;50.620;7.232;2022-12-18T04:03:08;-6.30;1.00
20174;DHT22;10246;50.620;7.232;2022-12-18T04:05:36;-6.30;1.00
20174;DHT22;10246;50.620;7.232;2022-12-18T04:08:04;-6.30;1.00
20174;DHT22;10246;50.620;7.232;2022-12-18T04:10:31;-6.40;1.00
20174;DHT22;10246;50.620;7.232;2022-12-18T04:12:58;-6.20;1.00
20174;DHT22;10246;50.620;7.232;2022-12-18T04:15:25;-6.30;1.00
20174;DHT22;10246;50.620;7.232;2022-12-18T04:17:53;-6.30;1.00
20174;DHT22;10246;50.620;7.232;2022-12-18T04:20:20;-6.10;1.00
20174;DHT22;10246;50.620;7.232;2022-12-18T04:22:47;-6.30;1.00
20174;DHT22;10246;50.620;7.232;2022-12-18T04:25:15;-6.10;1.00
20174;DHT22;10246;50.620;7.232;2022-12-18T04:27:41;-6.20;1.00
20174;DHT22;10246;50.620;7.232;2022-12-18T04:30:09;-6.00;1.00
20174;DHT22;10246;50.620;7.232;2022-12-18T04:32:36;-6.20;1.00
20174;DHT22;10246;50.620;7.232;2022-12-18T04:35:05;-6.30;1.00
20174;DHT22;10246;50.620;7.232;2022-12-18T04:37:35;-6.10;1.00
20174;DHT22;10246;50.620;7.232;2022-12-18T04:40:03;-6.10;1.00
20174;DHT22;10246;50.620;7.232;2022-12-18T04:42:29;-6.30;1.00
20174;DHT22;10246;50.620;7.232;2022-12-18T04:44:56;-6.10;1.00
20174;DHT22;10246;50.620;7.232;2022-12-18T04:47:23;-6.00;1.00
20174;DHT22;10246;50.620;7.232;2022-12-18T04:49:50;-6.10;1.00
20174;DHT22;10246;50.620;7.232;2022-12-18T04:52:18;-6.30;1.00
20174;DHT22;10246;50.620;7.232;2022-12-18T04:54:45;-6.20;1.00
20174;DHT22;10246;50.620;7.232;2022-12-18T04:57:11;-6.30;1.40
20174;DHT22;10246;50.620;7.232;2022-12-18T04:59:38;-6.00;1.60
20174;DHT22;10246;50.620;7.232;2022-12-18T05:02:05;-6.00;1.30
20174;DHT22;10246;50.620;7.232;2022-12-18T05:04:32;-6.00;1.10
20174;DHT22;10246;50.620;7.232;2022-12-18T05:06:59;-6.00;1.00
20174;DHT22;10246;50.620;7.232;2022-12-18T05:09:27;-6.10;1.00
20174;DHT22;10246;50.620;7.232;2022-12-18T05:11:53;-6.20;1.00
20174;DHT22;10246;50.620;7.232;2022-12-18T05:14:20;-6.20;1.00
20174;DHT22;10246;50.620;7.232;2022-12-18T05:16:47;-5.90;1.00
20174;DHT22;10246;50.620;7.232;2022-12-18T05:19:14;-5.90;1.00
20174;DHT22;10246;50.620;7.232;2022-12-18T05:21:41;-5.90;1.00
20174;DHT22;10246;50.620;7.232;2022-12-18T05:24:08;-6.00;1.00
20174;DHT22;10246;50.620;7.232;2022-12-18T05:26:36;-5.90;1.10
20174;DHT22;10246;50.620;7.232;2022-12-18T05:29:02;-5.90;1.40
20174;DHT22;10246;50.620;7.232;2022-12-18T05:31:29;-6.10;1.20
20174;DHT22;10246;50.620;7.232;2022-12-18T05:33:56;-5.90;1.40
20174;DHT22;10246;50.620;7.232;2022-12-18T05:36:24;-6.10;1.30
20174;DHT22;10246;50.620;7.232;2022-12-18T05:38:51;-5.80;1.60
20174;DHT22;10246;50.620;7.232;2022-12-18T05:41:17;-6.00;1.60
20174;DHT22;10246;50.620;7.232;2022-12-18T05:43:46;-5.90;1.80
20174;DHT22;10246;50.620;7.232;2022-12-18T05:46:15;-6.10;2.20
20174;DHT22;10246;50.620;7.232;2022-12-18T05:48:43;-6.00;2.10
20174;DHT22;10246;50.620;7.232;2022-12-18T05:51:12;-5.90;2.10
20174;DHT22;10246;50.620;7.232;2022-12-18T05:53:40;-5.90;2.30
20174;DHT22;10246;50.620;7.232;2022-12-18T05:56:10;-6.00;2.20
20174;DHT22;10246;50.620;7.232;2022-12-18T05:58:37;-6.00;2.20
20174;DHT22;10246;50.620;7.232;2022-12-18T06:01:10;-5.90;2.00
20174;DHT22;10246;50.620;7.232;2022-12-18T06:03:37;-5.80;1.60
20174;DHT22;10246;50.620;7.232;2022-12-18T06:06:11;-6.00;1.50
20174;DHT22;10246;50.620;7.232;2022-12-18T06:08:38;-5.90;1.60
20174;DHT22;10246;50.620;7.232;2022-12-18T06:11:05;-5.70;1.60
20174;DHT22;10246;50.620;7.232;2022-12-18T06:13:32;-5.80;1.20
20174;DHT22;10246;50.620;7.232;2022-12-18T06:16:02;-5.80;1.50
20174;DHT22;10246;50.620;7.232;2022-12-18T06:18:30;-5.70;1.60
20174;DHT22;10246;50.620;7.232;2022-12-18T06:20:58;-5.90;1.50
20174;DHT22;10246;50.620;7.232;2022-12-18T06:23:25;-5.80;1.80
20174;DHT22;10246;50.620;7.232;2022-12-18T06:25:53;-5.60;2.10
20174;DHT22;10246;50.620;7.232;2022-12-18T06:28:20;-5.70;2.10
20174;DHT22;10246;50.620;7.232;2022-12-18T06:30:47;-5.60;2.20
20174;DHT22;10246;50.620;7.232;2022-12-18T06:33:15;-5.80;1.30
20174;DHT22;10246;50.620;7.232;2022-12-18T06:35:43;-5.50;1.50
20174;DHT22;10246;50.620;7.232;2022-12-18T06:38:10;-5.70;1.30
20174;DHT22;10246;50.620;7.232;2022-12-18T06:40:37;-5.50;1.40
20174;DHT22;10246;50.620;7.232;2022-12-18T06:43:04;-5.70;1.50
20174;DHT22;10246;50.620;7.232;2022-12-18T06:45:31;-5.80;1.60
20174;DHT22;10246;50.620;7.232;2022-12-18T06:47:58;-5.70;1.90
20174;DHT22;10246;50.620;7.232;2022-12-18T06:50:25;-5.70;1.60
20174;DHT22;10246;50.620;7.232;2022-12-18T06:52:53;-5.50;1.80
20174;DHT22;10246;50.620;7.232;2022-12-18T06:55:19;-5.70;1.50
20174;DHT22;10246;50.620;7.232;2022-12-18T06:57:46;-5.70;1.40
20174;DHT22;10246;50.620;7.232;2022-12-18T07:00:14;-5.60;1.50
20174;DHT22;10246;50.620;7.232;2022-12-18T07:02:40;-5.50;1.60
20174;DHT22;10246;50.620;7.232;2022-12-18T07:05:08;-5.70;1.60
20174;DHT22;10246;50.620;7.232;2022-12-18T07:07:35;-5.70;1.50
20174;DHT22;10246;50.620;7.232;2022-12-18T07:10:03;-5.50;1.40
20174;DHT22;10246;50.620;7.232;2022-12-18T07:12:30;-5.60;1.10
20174;DHT22;10246;50.620;7.232;2022-12-18T07:14:58;-5.70;1.00
20174;DHT22;10246;50.620;7.232;2022-12-18T07:17:24;-5.70;1.00
20174;DHT22;10246;50.620;7.232;2022-12-18T07:19:51;-5.60;1.00
20174;DHT22;10246;50.620;7.232;2022-12-18T07:22:18;-5.60;1.20
20174;DHT22;10246;50.620;7.232;2022-12-18T07:24:45;-5.80;1.00
20174;DHT22;10246;50.620;7.232;2022-12-18T07:27:13;-5.90;1.00
20174;DHT22;10246;50.620;7.232;2022-12-18T07:29:39;-5.80;1.00
20174;DHT22;10246;50.620;7.232;2022-12-18T07:32:06;-5.70;1.10
20174;DHT22;10246;50.620;7.232;2022-12-18T07:34:33;-5.70;1.00
20174;DHT22;10246;50.620;7.232;2022-12-18T07:37:00;-6.00;1.40
20174;DHT22;10246;50.620;7.232;2022-12-18T07:39:27;-5.60;2.30
20174;DHT22;10246;50.620;7.232;2022-12-18T07:41:54;-5.60;2.40
20174;DHT22;10246;50.620;7.232;2022-12-18T07:44:40;-5.70;2.50
20174;DHT22;10246;50.620;7.232;2022-12-18T07:47:06;-5.60;2.60
20174;DHT22;10246;50.620;7.232;2022-12-18T07:49:33;-5.60;2.80
20174;DHT22;10246;50.620;7.232;2022-12-18T07:52:00;-5.40;2.90
20174;DHT22;10246;50.620;7.232;2022-12-18T07:54:27;-5.50;2.20
20174;DHT22;10246;50.620;7.232;2022-12-18T07:56:54;-5.40;1.90
20174;DHT22;10246;50.620;7.232;2022-12-18T07:59:20;-5.60;2.30
20174;DHT22;10246;50.620;7.232;2022-12-18T08:01:49;-5.50;2.20
20174;DHT22;10246;50.620;7.232;2022-12-18T08:04:15;-5.50;2.10
20174;DHT22;10246;50.620;7.232;2022-12-18T08:06:42;-5.40;2.20
20174;DHT22;10246;50.620;7.232;2022-12-18T08:09:10;-5.50;2.20
20174;DHT22;10246;50.620;7.232;2022-12-18T08:11:36;-5.50;2.40
20174;DHT22;10246;50.620;7.232;2022-12-18T08:14:03;-5.60;2.30
20174;DHT22;10246;50.620;7.232;2022-12-18T08:16:30;-5.40;2.70
20174;DHT22;10246;50.620;7.232;2022-12-18T08:18:58;-5.30;1.90
20174;DHT22;10246;50.620;7.232;2022-12-18T08:21:27;-5.20;3.00
20174;DHT22;10246;50.620;7.232;2022-12-18T08:23:55;-5.30;2.20
20174;DHT22;10246;50.620;7.232;2022-12-18T08:26:24;-5.30;2.30
20174;DHT22;10246;50.620;7.232;2022-12-18T08:28:51;-5.30;2.60
20174;DHT22;10246;50.620;7.232;2022-12-18T08:31:18;-5.20;2.80
20174;DHT22;10246;50.620;7.232;2022-12-18T08:33:48;-5.10;3.10
20174;DHT22;10246;50.620;7.232;2022-12-18T08:36:16;-5.30;3.10
20174;DHT22;10246;50.620;7.232;2022-12-18T08:38:43;-5.20;3.10
20174;DHT22;10246;50.620;7.232;2022-12-18T08:41:12;-5.20;2.90
20174;DHT22;10246;50.620;7.232;2022-12-18T08:43:39;-5.00;3.00
20174;DHT22;10246;50.620;7.232;2022-12-18T08:46:25;-4.90;3.00
20174;DHT22;10246;50.620;7.232;2022-12-18T08:48:53;-4.90;3.10
20174;DHT22;10246;50.620;7.232;2022-12-18T08:51:21;-5.00;2.90
20174;DHT22;10246;50.620;7.232;2022-12-18T08:53:48;-4.70;3.00
20174;DHT22;10246;50.620;7.232;2022-12-18T08:56:15;-4.90;2.80
20174;DHT22;10246;50.620;7.232;2022-12-18T08:58:42;-4.80;2.80
20174;DHT22;10246;50.620;7.232;2022-12-18T09:01:11;-4.80;2.80
20174;DHT22;10246;50.620;7.232;2022-12-18T09:03:38;-4.60;3.20
20174;DHT22;10246;50.620;7.232;2022-12-18T09:06:05;-4.90;3.10
20174;DHT22;10246;50.620;7.232;2022-12-18T09:08:34;-4.60;3.20
20174;DHT22;10246;50.620;7.232;2022-12-18T09:11:02;-4.60;3.40
20174;DHT22;10246;50.620;7.232;2022-12-18T09:13:29;-4.30;3.50
20174;DHT22;10246;50.620;7.232;2022-12-18T09:15:55;-4.50;3.20
20174;DHT22;10246;50.620;7.232;2022-12-18T09:18:23;-4.20;3.50
20174;DHT22;10246;50.620;7.232;2022-12-18T09:20:50;-4.20;3.00
20174;DHT22;10246;50.620;7.232;2022-12-18T09:23:18;-4.30;2.70
20174;DHT22;10246;50.620;7.232;2022-12-18T09:25:47;-4.30;2.60
20174;DHT22;10246;50.620;7.232;2022-12-18T09:28:14;-4.30;2.50
20174;DHT22;10246;50.620;7.232;2022-12-18T09:30:45;-4.20;2.90
20174;DHT22;10246;50.620;7.232;2022-12-18T09:33:12;-4.30;3.10
20174;DHT22;10246;50.620;7.232;2022-12-18T09:35:39;-4.00;2.80
20174;DHT22;10246;50.620;7.232;2022-12-18T09:38:08;-4.00;3.10
20174;DHT22;10246;50.620;7.232;2022-12-18T09:40:42;-3.80;3.20
20174;DHT22;10246;50.620;7.232;2022-12-18T09:43:16;-3.90;2.60
20174;DHT22;10246;50.620;7.232;2022-12-18T09:45:47;-3.50;2.70
20174;DHT22;10246;50.620;7.232;2022-12-18T09:48:19;-3.40;2.40
20174;DHT22;10246;50.620;7.232;2022-12-18T09:50:47;-3.30;2.40
20174;DHT22;10246;50.620;7.232;2022-12-18T09:53:17;-3.20;2.00
20174;DHT22;10246;50.620;7.232;2022-12-18T09:55:46;-3.20;1.30
20174;DHT22;10246;50.620;7.232;2022-12-18T09:58:20;-3.00;1.10
20174;DHT22;10246;50.620;7.232;2022-12-18T10:01:02;-3.10;1.00
20174;DHT22;10246;50.620;7.232;2022-12-18T10:03:32;-2.70;1.00
20174;DHT22;10246;50.620;7.232;2022-12-18T10:06:06;-2.80;1.00
20174;DHT22;10246;50.620;7.232;2022-12-18T10:08:43;-2.80;1.00
20174;DHT22;10246;50.620;7.232;2022-12-18T10:11:37;-2.90;1.00
20174;DHT22;10246;50.620;7.232;2022-12-18T10:14:12;-2.80;1.00
20174;DHT22;10246;50.620;7.232;2022-12-18T10:17:11;-2.70;1.00
20174;DHT22;10246;50.620;7.232;2022-12-18T10:19:45;-2.70;1.00
20174;DHT22;10246;50.620;7.232;2022-12-18T10:22:26;-2.40;1.00
20174;DHT22;10246;50.620;7.232;2022-12-18T10:25:02;-2.50;1.00
20174;DHT22;10246;50.620;7.232;2022-12-18T10:27:31;-2.30;1.00
20174;DHT22;10246;50.620;7.232;2022-12-18T10:30:00;-2.40;1.00
20174;DHT22;10246;50.620;7.232;2022-12-18T10:32:29;-2.40;1.00
20174;DHT22;10246;50.620;7.232;2022-12-18T10:34:58;-2.10;1.00
20174;DHT22;10246;50.620;7.232;2022-12-18T10:37:26;-2.20;1.00
20174;DHT22;10246;50.620;7.232;2022-12-18T10:40:08;-2.10;1.00
20174;DHT22;10246;50.620;7.232;2022-12-18T10:50:00;-1.90;1.00
20174;DHT22;10246;50.620;7.232;2022-12-18T10:53:24;-1.70;1.00
20174;DHT22;10246;50.620;7.232;2022-12-18T11:09:41;-1.30;1.00
20174;DHT22;10246;50.620;7.232;2022-12-18T11:12:25;-1.40;1.00
20174;DHT22;10246;50.620;7.232;2022-12-18T11:14:57;-1.40;1.00
20174;DHT22;10246;50.620;7.232;2022-12-18T11:17:28;-1.30;1.00
20174;DHT22;10246;50.620;7.232;2022-12-18T11:19:57;-1.20;1.00
20174;DHT22;10246;50.620;7.232;2022-12-18T11:22:26;-1.30;1.00
20174;DHT22;10246;50.620;7.232;2022-12-18T11:24:57;-1.30;1.00
20174;DHT22;10246;50.620;7.232;2022-12-18T11:27:25;-1.00;1.00
20174;DHT22;10246;50.620;7.232;2022-12-18T11:29:52;-1.10;1.00
20174;DHT22;10246;50.620;7.232;2022-12-18T11:32:31;-1.20;1.00
20174;DHT22;10246;50.620;7.232;2022-12-18T11:35:11;-1.30;1.00
20174;DHT22;10246;50.620;7.232;2022-12-18T11:37:42;-1.30;1.00
20174;DHT22;10246;50.620;7.232;2022-12-18T11:40:14;-1.10;1.00
20174;DHT22;10246;50.620;7.232;2022-12-18T11:42:48;-1.20;1.00
20174;DHT22;10246;50.620;7.232;2022-12-18T11:45:28;-1.00;1.00
20174;DHT22;10246;50.620;7.232;2022-12-18T11:48:03;-1.00;1.00
20174;DHT22;10246;50.620;7.232;2022-12-18T11:50:38;-1.10;1.00
20174;DHT22;10246;50.620;7.232;2022-12-18T11:53:10;-1.30;1.00
20174;DHT22;10246;50.620;7.232;2022-12-18T11:55:43;-1.00;1.00
20174;DHT22;10246;50.620;7.232;2022-12-18T11:58:20;-1.10;1.00
20174;DHT22;10246;50.620;7.232;2022-12-18T12:00:57;-1.00;1.00
20174;DHT22;10246;50.620;7.232;2022-12-18T12:06:47;-1.10;1.00
20174;DHT22;10246;50.620;7.232;2022-12-18T12:09:21;-1.00;1.00
20174;DHT22;10246;50.620;7.232;2022-12-18T12:12:02;-1.20;1.00
20174;DHT22;10246;50.620;7.232;2022-12-18T12:14:43;-1.20;1.00
20174;DHT22;10246;50.620;7.232;2022-12-18T12:17:17;-1.10;1.00
20174;DHT22;10246;50.620;7.232;2022-12-18T12:19:50;-1.20;1.00
20174;DHT22;10246;50.620;7.232;2022-12-18T12:22:26;-1.20;1.00
20174;DHT22;10246;50.620;7.232;2022-12-18T12:25:15;-0.90;1.00
20174;DHT22;10246;50.620;7.232;2022-12-18T12:27:53;-1.10;1.00
20174;DHT22;10246;50.620;7.232;2022-12-18T12:30:30;-1.10;1.00
20174;DHT22;10246;50.620;7.232;2022-12-18T12:33:09;-1.10;1.00
20174;DHT22;10246;50.620;7.232;2022-12-18T12:35:46;-0.90;1.00
20174;DHT22;10246;50.620;7.232;2022-12-18T12:38:16;-1.00;1.00
20174;DHT22;10246;50.620;7.232;2022-12-18T12:40:47;-1.40;1.00
20174;DHT22;10246;50.620;7.232;2022-12-18T12:43:27;-1.10;1.00
20174;DHT22;10246;50.620;7.232;2022-12-18T12:45:56;-0.80;1.00
20174;DHT22;10246;50.620;7.232;2022-12-18T12:48:33;-0.90;1.00
20174;DHT22;10246;50.620;7.232;2022-12-18T12:51:03;-0.90;1.00
20174;DHT22;10246;50.620;7.232;2022-12-18T12:53:36;-0.90;1.00
20174;DHT22;10246;50.620;7.232;2022-12-18T12:56:04;-0.90;1.00
20174;DHT22;10246;50.620;7.232;2022-12-18T12:58:40;-0.70;1.00
20174;DHT22;10246;50.620;7.232;2022-12-18T13:01:13;-0.50;1.00
20174;DHT22;10246;50.620;7.232;2022-12-18T13:03:51;-0.70;1.00
20174;DHT22;10246;50.620;7.232;2022-12-18T13:09:22;-0.70;1.00
20174;DHT22;10246;50.620;7.232;2022-12-18T13:11:53;-0.70;1.00
20174;DHT22;10246;50.620;7.232;2022-12-18T13:21:23;-0.60;1.00
20174;DHT22;10246;50.620;7.232;2022-12-18T13:23:52;-0.70;1.00
20174;DHT22;10246;50.620;7.232;2022-12-18T13:26:30;-0.60;1.00
20174;DHT22;10246;50.620;7.232;2022-12-18T13:29:04;-0.80;1.00
20174;DHT22;10246;50.620;7.232;2022-12-18T13:36:31;-0.80;1.00
20174;DHT22;10246;50.620;7.232;2022-12-18T13:39:35;-1.00;1.00
20174;DHT22;10246;50.620;7.232;2022-12-18T13:42:47;-0.90;1.00
20174;DHT22;10246;50.620;7.232;2022-12-18T13:45:43;-0.80;1.00
20174;DHT22;10246;50.620;7.232;2022-12-18T13:48:16;-0.90;1.00
20174;DHT22;10246;50.620;7.232;2022-12-18T13:50:49;-0.70;1.00
20174;DHT22;10246;50.620;7.232;2022-12-18T13:53:27;-0.70;1.00
20174;DHT22;10246;50.620;7.232;2022-12-18T13:56:00;-0.90;1.00
20174;DHT22;10246;50.620;7.232;2022-12-18T13:58:28;-0.80;1.00
20174;DHT22;10246;50.620;7.232;2022-12-18T14:00:55;-0.70;1.00
20174;DHT22;10246;50.620;7.232;2022-12-18T14:03:33;-0.70;1.00
20174;DHT22;10246;50.620;7.232;2022-12-18T14:06:07;-0.70;1.00
20174;DHT22;10246;50.620;7.232;2022-12-18T14:08:50;-0.70;1.00
20174;DHT22;10246;50.620;7.232;2022-12-18T14:11:20;-0.60;1.00
20174;DHT22;10246;50.620;7.232;2022-12-18T14:13:49;-0.80;1.00
20174;DHT22;10246;50.620;7.232;2022-12-18T14:16:34;-0.60;1.00
20174;DHT22;10246;50.620;7.232;2022-12-18T14:19:08;-0.70;1.00
20174;DHT22;10246;50.620;7.232;2022-12-18T14:21:38;-0.70;1.00
20174;DHT22;10246;50.620;7.232;2022-12-18T14:24:14;-0.50;1.00
20174;DHT22;10246;50.620;7.232;2022-12-18T14:26:41;-0.90;1.00
20174;DHT22;10246;50.620;7.232;2022-12-18T14:29:29;-0.60;1.00
20174;DHT22;10246;50.620;7.232;2022-12-18T14:32:12;-0.80;1.00
20174;DHT22;10246;50.620;7.232;2022-12-18T14:34:41;-0.70;1.00
20174;DHT22;10246;50.620;7.232;2022-12-18T14:37:10;-0.80;1.00
20174;DHT22;10246;50.620;7.232;2022-12-18T14:39:39;-0.70;1.00
20174;DHT22;10246;50.620;7.232;2022-12-18T14:42:09;-0.70;1.00
20174;DHT22;10246;50.620;7.232;2022-12-18T14:44:36;-0.60;1.00
20174;DHT22;10246;50.620;7.232;2022-12-18T14:47:03;-0.80;1.00
20174;DHT22;10246;50.620;7.232;2022-12-18T14:49:31;-0.70;1.00
20174;DHT22;10246;50.620;7.232;2022-12-18T14:52:00;-0.90;1.00
20174;DHT22;10246;50.620;7.232;2022-12-18T14:54:29;-0.80;1.00
20174;DHT22;10246;50.620;7.232;2022-12-18T14:57:01;-0.90;1.00
20174;DHT22;10246;50.620;7.232;2022-12-18T14:59:29;-1.00;1.00
20174;DHT22;10246;50.620;7.232;2022-12-18T15:02:01;-0.90;1.00
20174;DHT22;10246;50.620;7.232;2022-12-18T15:04:32;-1.00;1.00
20174;DHT22;10246;50.620;7.232;2022-12-18T15:07:07;-0.90;1.00
20174;DHT22;10246;50.620;7.232;2022-12-18T15:09:34;-0.90;1.00
20174;DHT22;10246;50.620;7.232;2022-12-18T15:12:03;-1.00;1.00
20174;DHT22;10246;50.620;7.232;2022-12-18T15:14:33;-0.90;1.00
20174;DHT22;10246;50.620;7.232;2022-12-18T15:17:02;-0.90;1.00
20174;DHT22;10246;50.620;7.232;2022-12-18T15:19:37;-1.10;1.00
20174;DHT22;10246;50.620;7.232;2022-12-18T15:22:04;-0.90;1.00
20174;DHT22;10246;50.620;7.232;2022-12-18T15:24:32;-0.90;1.00
20174;DHT22;10246;50.620;7.232;2022-12-18T15:26:59;-1.00;1.00
20174;DHT22;10246;50.620;7.232;2022-12-18T15:29:28;-1.00;1.00
20174;DHT22;10246;50.620;7.232;2022-12-18T15:31:59;-1.10;1.00
20174;DHT22;10246;50.620;7.232;2022-12-18T15:34:26;-1.00;1.00
20174;DHT22;10246;50.620;7.232;2022-12-18T15:36:54;-0.90;1.00
20174;DHT22;10246;50.620;7.232;2022-12-18T15:39:20;-1.00;1.00
20174;DHT22;10246;50.620;7.232;2022-12-18T15:41:47;-0.90;1.00
20174;DHT22;10246;50.620;7.232;2022-12-18T15:44:33;-1.00;1.00
20174;DHT22;10246;50.620;7.232;2022-12-18T15:47:00;-1.10;1.00
20174;DHT22;10246;50.620;7.232;2022-12-18T15:49:27;-0.90;1.00
20174;DHT22;10246;50.620;7.232;2022-12-18T15:51:57;-1.00;1.00
20174;DHT22;10246;50.620;7.232;2022-12-18T15:54:25;-1.00;1.00
20174;DHT22;10246;50.620;7.232;2022-12-18T15:57:08;-0.90;1.00
20174;DHT22;10246;50.620;7.232;2022-12-18T15:59:53;-1.10;1.00
20174;DHT22;10246;50.620;7.232;2022-12-18T16:02:22;-1.10;1.00
20174;DHT22;10246;50.620;7.232;2022-12-18T16:04:49;-0.90;1.00
20174;DHT22;10246;50.620;7.232;2022-12-18T16:07:16;-0.80;1.00
20174;DHT22;10246;50.620;7.232;2022-12-18T16:09:44;-1.00;1.00
20174;DHT22;10246;50.620;7.232;2022-12-18T16:12:19;-1.00;1.00
20174;DHT22;10246;50.620;7.232;2022-12-18T16:14:47;-0.90;1.00
20174;DHT22;10246;50.620;7.232;2022-12-18T16:17:15;-0.90;1.00
20174;DHT22;10246;50.620;7.232;2022-12-18T16:19:42;-1.10;1.00
20174;DHT22;10246;50.620;7.232;2022-12-18T16:22:17;-0.90;1.00
20174;DHT22;10246;50.620;7.232;2022-12-18T16:24:45;-1.10;1.00
20174;DHT22;10246;50.620;7.232;2022-12-18T16:27:12;-1.10;1.00
20174;DHT22;10246;50.620;7.232;2022-12-18T16:29:38;-0.80;1.00
20174;DHT22;10246;50.620;7.232;2022-12-18T16:32:05;-0.90;1.00
20174;DHT22;10246;50.620;7.232;2022-12-18T16:34:34;-0.90;1.00
20174;DHT22;10246;50.620;7.232;2022-12-18T16:37:02;-1.10;1.00
20174;DHT22;10246;50.620;7.232;2022-12-18T16:39:29;-1.00;1.00
20174;DHT22;10246;50.620;7.232;2022-12-18T16:41:57;-1.10;1.00
20174;DHT22;10246;50.620;7.232;2022-12-18T16:44:24;-1.10;1.00
20174;DHT22;10246;50.620;7.232;2022-12-18T16:46:51;-0.90;1.00